sensor_id;sensor_type;location;lat;lon;timestamp;temperature;humidity
8099;DHT22;4092;47.876;9.372;2023-08-12T00:02:01;17.40;99.90
8099;DHT22;4092;47.876;9.372;2023-08-12T00:04:28;17.40;99.90
8099;DHT22;4092;47.876;9.372;2023-08-12T00:06:55;17.40;99.90
8099;DHT22;4092;47.876;9.372;2023-08-12T00:09:22;17.40;99.90
8099;DHT22;4092;47.876;9.372;2023-08-12T00:11:51;17.30;99.90
8099;DHT22;4092;47.876;9.372;2023-08-12T00:14:19;17.30;99.90
8099;DHT22;4092;47.876;9.372;2023-08-12T00:16:46;17.30;99.90
8099;DHT22;4092;47.876;9.372;2023-08-12T00:19:13;17.20;99.90
8099;DHT22;4092;47.876;9.372;2023-08-12T00:21:40;17.10;99.90
8099;DHT22;4092;47.876;9.372;2023-08-12T00:24:07;17.10;99.90
8099;DHT22;4092;47.876;9.372;2023-08-12T00:26:34;17.10;99.90
8099;DHT22;4092;47.876;9.372;2023-08-12T00:29:02;17.10;99.90
8099;DHT22;4092;47.876;9.372;2023-08-12T00:31:29;17.10;99.90
8099;DHT22;4092;47.876;9.372;2023-08-12T00:33:56;17.10;99.90
8099;DHT22;4092;47.876;9.372;2023-08-12T00:36:23;17.00;99.90
8099;DHT22;4092;47.876;9.372;2023-08-12T00:38:50;17.00;99.90
8099;DHT22;4092;47.876;9.372;2023-08-12T00:41:17;17.00;99.90
8099;DHT22;4092;47.876;9.372;2023-08-12T00:43:44;17.00;99.90
8099;DHT22;4092;47.876;9.372;2023-08-12T00:46:13;17.00;99.90
8099;DHT22;4092;47.876;9.372;2023-08-12T00:48:40;16.90;99.90
8099;DHT22;4092;47.876;9.372;2023-08-12T00:51:07;16.90;99.90
8099;DHT22;4092;47.876;9.372;2023-08-12T00:53:34;16.90;99.90
8099;DHT22;4092;47.876;9.372;2023-08-12T00:56:02;16.90;99.90
8099;DHT22;4092;47.876;9.372;2023-08-12T00:58:29;16.90;99.90
8099;DHT22;4092;47.876;9.372;2023-08-12T01:00:57;16.80;99.90
8099;DHT22;4092;47.876;9.372;2023-08-12T01:03:25;16.80;99.90
8099;DHT22;4092;47.876;9.372;2023-08-12T01:05:53;16.80;99.90
8099;DHT22;4092;47.876;9.372;2023-08-12T01:08:20;16.80;99.90
8099;DHT22;4092;47.876;9.372;2023-08-12T01:10:54;16.70;99.90
8099;DHT22;4092;47.876;9.372;2023-08-12T01:13:31;16.70;99.90
8099;DHT22;4092;47.876;9.372;2023-08-12T01:16:02;16.70;99.90
8099;DHT22;4092;47.876;9.372;2023-08-12T01:18:31;16.70;99.90
8099;DHT22;4092;47.876;9.372;2023-08-12T01:20:59;16.60;99.90
8099;DHT22;4092;47.876;9.372;2023-08-12T01:23:30;16.60;99.90
8099;DHT22;4092;47.876;9.372;2023-08-12T01:25:57;16.60;99.90
8099;DHT22;4092;47.876;9.372;2023-08-12T01:28:24;16.50;99.90
8099;DHT22;4092;47.876;9.372;2023-08-12T01:30:56;16.60;99.90
8099;DHT22;4092;47.876;9.372;2023-08-12T01:33:30;16.50;99.90
8099;DHT22;4092;47.876;9.372;2023-08-12T01:36:04;16.60;99.90
8099;DHT22;4092;47.876;9.372;2023-08-12T01:38:36;16.60;99.90
8099;DHT22;4092;47.876;9.372;2023-08-12T01:41:06;16.60;99.90
8099;DHT22;4092;47.876;9.372;2023-08-12T01:43:34;16.60;99.90
8099;DHT22;4092;47.876;9.372;2023-08-12T01:46:01;16.60;99.90
8099;DHT22;4092;47.876;9.372;2023-08-12T01:48:28;16.60;99.90
8099;DHT22;4092;47.876;9.372;2023-08-12T01:50:55;16.60;99.90
8099;DHT22;4092;47.876;9.372;2023-08-12T01:53:22;16.60;99.90
8099;DHT22;4092;47.876;9.372;2023-08-12T01:55:52;16.60;99.90
8099;DHT22;4092;47.876;9.372;2023-08-12T01:58:19;16.60;99.90
8099;DHT22;4092;47.876;9.372;2023-08-12T02:00:46;16.60;99.90
8099;DHT22;4092;47.876;9.372;2023-08-12T02:03:13;16.50;99.90
8099;DHT22;4092;47.876;9.372;2023-08-12T02:05:40;16.50;99.90
8099;DHT22;4092;47.876;9.372;2023-08-12T02:08:07;16.50;99.90
8099;DHT22;4092;47.876;9.372;2023-08-12T02:10:34;16.50;99.90
8099;DHT22;4092;47.876;9.372;2023-08-12T02:13:03;16.50;99.90
8099;DHT22;4092;47.876;9.372;2023-08-12T02:15:30;16.50;99.90
8099;DHT22;4092;47.876;9.372;2023-08-12T02:17:57;16.40;99.90
8099;DHT22;4092;47.876;9.372;2023-08-12T02:20:24;16.40;99.90
8099;DHT22;4092;47.876;9.372;2023-08-12T02:22:51;16.40;99.90
8099;DHT22;4092;47.876;9.372;2023-08-12T02:25:18;16.40;99.90
8099;DHT22;4092;47.876;9.372;2023-08-12T02:27:45;16.40;99.90
8099;DHT22;4092;47.876;9.372;2023-08-12T02:30:14;16.40;99.90
8099;DHT22;4092;47.876;9.372;2023-08-12T02:32:40;16.40;99.90
8099;DHT22;4092;47.876;9.372;2023-08-12T02:35:09;16.40;99.90
8099;DHT22;4092;47.876;9.372;2023-08-12T02:37:36;16.40;99.90
8099;DHT22;4092;47.876;9.372;2023-08-12T02:40:04;16.40;99.90
8099;DHT22;4092;47.876;9.372;2023-08-12T02:42:31;16.50;99.90
8099;DHT22;4092;47.876;9.372;2023-08-12T02:44:58;16.50;99.90
8099;DHT22;4092;47.876;9.372;2023-08-12T02:47:28;16.60;99.90
8099;DHT22;4092;47.876;9.372;2023-08-12T02:49:55;16.60;99.90
8099;DHT22;4092;47.876;9.372;2023-08-12T02:52:22;16.60;99.90
8099;DHT22;4092;47.876;9.372;2023-08-12T02:54:49;16.70;99.90
8099;DHT22;4092;47.876;9.372;2023-08-12T02:57:16;16.70;99.90
8099;DHT22;4092;47.876;9.372;2023-08-12T02:59:43;16.80;99.90
8099;DHT22;4092;47.876;9.372;2023-08-12T03:02:10;16.80;99.90
8099;DHT22;4092;47.876;9.372;2023-08-12T03:04:38;16.80;99.90
8099;DHT22;4092;47.876;9.372;2023-08-12T03:07:05;16.80;99.90
8099;DHT22;4092;47.876;9.372;2023-08-12T03:09:32;16.90;99.90
8099;DHT22;4092;47.876;9.372;2023-08-12T03:11:59;16.90;99.90
8099;DHT22;4092;47.876;9.372;2023-08-12T03:14:28;17.00;99.90
8099;DHT22;4092;47.876;9.372;2023-08-12T03:16:55;17.00;99.90
8099;DHT22;4092;47.876;9.372;2023-08-12T03:19:22;17.00;99.90
8099;DHT22;4092;47.876;9.372;2023-08-12T03:21:51;17.00;99.90
8099;DHT22;4092;47.876;9.372;2023-08-12T03:24:18;17.00;99.90
8099;DHT22;4092;47.876;9.372;2023-08-12T03:26:45;17.00;99.90
8099;DHT22;4092;47.876;9.372;2023-08-12T03:29:11;17.00;99.90
8099;DHT22;4092;47.876;9.372;2023-08-12T03:31:38;17.00;99.90
8099;DHT22;4092;47.876;9.372;2023-08-12T03:34:05;17.00;99.90
8099;DHT22;4092;47.876;9.372;2023-08-12T03:36:32;17.00;99.90
8099;DHT22;4092;47.876;9.372;2023-08-12T03:39:00;17.00;99.90
8099;DHT22;4092;47.876;9.372;2023-08-12T03:41:27;17.10;99.90
8099;DHT22;4092;47.876;9.372;2023-08-12T03:43:55;17.10;99.90
8099;DHT22;4092;47.876;9.372;2023-08-12T03:46:21;17.10;99.90
8099;DHT22;4092;47.876;9.372;2023-08-12T03:48:48;17.10;99.90
8099;DHT22;4092;47.876;9.372;2023-08-12T03:51:15;17.20;99.90
8099;DHT22;4092;47.876;9.372;2023-08-12T03:53:42;17.20;99.90
8099;DHT22;4092;47.876;9.372;2023-08-12T03:56:11;17.20;99.90
8099;DHT22;4092;47.876;9.372;2023-08-12T03:58:40;17.20;99.90
8099;DHT22;4092;47.876;9.372;2023-08-12T04:01:07;17.20;99.90
8099;DHT22;4092;47.876;9.372;2023-08-12T04:03:34;17.20;99.90
8099;DHT22;4092;47.876;9.372;2023-08-12T04:06:01;17.30;99.90
8099;DHT22;4092;47.876;9.372;2023-08-12T04:08:29;17.30;99.90
8099;DHT22;4092;47.876;9.372;2023-08-12T04:10:57;17.30;99.90
8099;DHT22;4092;47.876;9.372;2023-08-12T04:13:26;17.30;99.90
8099;DHT22;4092;47.876;9.372;2023-08-12T04:15:53;17.30;99.90
8099;DHT22;4092;47.876;9.372;2023-08-12T04:18:20;17.40;99.90
8099;DHT22;4092;47.876;9.372;2023-08-12T04:20:47;17.40;99.90
8099;DHT22;4092;47.876;9.372;2023-08-12T04:23:15;17.40;99.90
8099;DHT22;4092;47.876;9.372;2023-08-12T04:25:43;17.40;99.90
8099;DHT22;4092;47.876;9.372;2023-08-12T04:28:10;17.50;99.90
8099;DHT22;4092;47.876;9.372;2023-08-12T04:30:41;17.50;99.90
8099;DHT22;4092;47.876;9.372;2023-08-12T04:33:09;17.50;99.90
8099;DHT22;4092;47.876;9.372;2023-08-12T04:35:36;17.50;99.90
8099;DHT22;4092;47.876;9.372;2023-08-12T04:38:03;17.50;99.90
8099;DHT22;4092;47.876;9.372;2023-08-12T04:40:30;17.50;99.90
8099;DHT22;4092;47.876;9.372;2023-08-12T04:42:57;17.50;99.90
8099;DHT22;4092;47.876;9.372;2023-08-12T04:45:25;17.50;99.90
8099;DHT22;4092;47.876;9.372;2023-08-12T04:47:55;17.60;99.90
8099;DHT22;4092;47.876;9.372;2023-08-12T04:50:22;17.60;99.90
8099;DHT22;4092;47.876;9.372;2023-08-12T04:52:49;17.60;99.90
8099;DHT22;4092;47.876;9.372;2023-08-12T04:55:16;17.60;99.90
8099;DHT22;4092;47.876;9.372;2023-08-12T04:57:44;17.60;99.90
8099;DHT22;4092;47.876;9.372;2023-08-12T05:00:11;17.70;99.90
8099;DHT22;4092;47.876;9.372;2023-08-12T05:02:39;17.70;99.90
8099;DHT22;4092;47.876;9.372;2023-08-12T05:05:08;17.80;99.90
8099;DHT22;4092;47.876;9.372;2023-08-12T05:07:35;17.80;99.90
8099;DHT22;4092;47.876;9.372;2023-08-12T05:10:02;17.80;99.90
8099;DHT22;4092;47.876;9.372;2023-08-12T05:12:29;17.90;99.90
8099;DHT22;4092;47.876;9.372;2023-08-12T05:14:56;17.90;99.90
8099;DHT22;4092;47.876;9.372;2023-08-12T05:17:23;18.00;99.90
8099;DHT22;4092;47.876;9.372;2023-08-12T05:19:50;18.00;99.90
8099;DHT22;4092;47.876;9.372;2023-08-12T05:22:19;18.10;99.90
8099;DHT22;4092;47.876;9.372;2023-08-12T05:24:46;18.10;99.90
8099;DHT22;4092;47.876;9.372;2023-08-12T05:27:13;18.20;99.90
8099;DHT22;4092;47.876;9.372;2023-08-12T05:29:40;18.20;99.90
8099;DHT22;4092;47.876;9.372;2023-08-12T05:32:07;18.30;99.90
8099;DHT22;4092;47.876;9.372;2023-08-12T05:34:34;18.30;99.90
8099;DHT22;4092;47.876;9.372;2023-08-12T05:37:01;18.40;99.90
8099;DHT22;4092;47.876;9.372;2023-08-12T05:39:29;18.40;99.90
8099;DHT22;4092;47.876;9.372;2023-08-12T05:41:56;18.40;99.90
8099;DHT22;4092;47.876;9.372;2023-08-12T05:44:23;18.50;99.90
8099;DHT22;4092;47.876;9.372;2023-08-12T05:46:50;18.50;99.90
8099;DHT22;4092;47.876;9.372;2023-08-12T05:49:17;18.50;99.90
8099;DHT22;4092;47.876;9.372;2023-08-12T05:51:44;18.50;99.90
8099;DHT22;4092;47.876;9.372;2023-08-12T05:54:11;18.60;99.90
8099;DHT22;4092;47.876;9.372;2023-08-12T05:56:40;18.60;99.90
8099;DHT22;4092;47.876;9.372;2023-08-12T05:59:06;18.60;99.90
8099;DHT22;4092;47.876;9.372;2023-08-12T06:01:33;18.60;99.90
8099;DHT22;4092;47.876;9.372;2023-08-12T06:04:00;18.60;99.90
8099;DHT22;4092;47.876;9.372;2023-08-12T06:06:28;18.60;99.90
8099;DHT22;4092;47.876;9.372;2023-08-12T06:08:55;18.70;99.90
8099;DHT22;4092;47.876;9.372;2023-08-12T06:11:22;18.70;99.90
8099;DHT22;4092;47.876;9.372;2023-08-12T06:13:50;18.80;99.90
8099;DHT22;4092;47.876;9.372;2023-08-12T06:16:17;18.90;99.90
8099;DHT22;4092;47.876;9.372;2023-08-12T06:18:44;19.00;99.90
8099;DHT22;4092;47.876;9.372;2023-08-12T06:21:11;19.20;99.90
8099;DHT22;4092;47.876;9.372;2023-08-12T06:23:38;19.30;99.90
8099;DHT22;4092;47.876;9.372;2023-08-12T06:26:05;19.40;99.90
8099;DHT22;4092;47.876;9.372;2023-08-12T06:28:31;19.60;99.90
8099;DHT22;4092;47.876;9.372;2023-08-12T06:31:00;19.70;99.90
8099;DHT22;4092;47.876;9.372;2023-08-12T06:33:27;19.80;99.90
8099;DHT22;4092;47.876;9.372;2023-08-12T06:35:54;19.90;99.90
8099;DHT22;4092;47.876;9.372;2023-08-12T06:38:22;19.90;99.90
8099;DHT22;4092;47.876;9.372;2023-08-12T06:40:49;19.90;99.90
8099;DHT22;4092;47.876;9.372;2023-08-12T06:43:16;19.90;99.90
8099;DHT22;4092;47.876;9.372;2023-08-12T06:45:43;19.90;99.90
8099;DHT22;4092;47.876;9.372;2023-08-12T06:48:12;19.90;99.90
8099;DHT22;4092;47.876;9.372;2023-08-12T06:50:39;20.10;99.90
8099;DHT22;4092;47.876;9.372;2023-08-12T06:53:06;20.30;99.90
8099;DHT22;4092;47.876;9.372;2023-08-12T06:55:33;20.50;99.90
8099;DHT22;4092;47.876;9.372;2023-08-12T06:58:00;20.80;99.90
8099;DHT22;4092;47.876;9.372;2023-08-12T07:00:28;21.00;99.90
8099;DHT22;4092;47.876;9.372;2023-08-12T07:02:55;21.00;99.90
8099;DHT22;4092;47.876;9.372;2023-08-12T07:05:23;21.00;99.90
8099;DHT22;4092;47.876;9.372;2023-08-12T07:07:52;21.10;99.90
8099;DHT22;4092;47.876;9.372;2023-08-12T07:10:19;21.00;99.90
8099;DHT22;4092;47.876;9.372;2023-08-12T07:12:47;21.00;99.90
8099;DHT22;4092;47.876;9.372;2023-08-12T07:15:14;20.90;99.90
8099;DHT22;4092;47.876;9.372;2023-08-12T07:17:41;20.90;99.90
8099;DHT22;4092;47.876;9.372;2023-08-12T07:20:13;21.00;99.90
8099;DHT22;4092;47.876;9.372;2023-08-12T07:22:41;21.10;99.90
8099;DHT22;4092;47.876;9.372;2023-08-12T07:25:09;21.30;99.90
8099;DHT22;4092;47.876;9.372;2023-08-12T07:27:36;21.50;99.90
8099;DHT22;4092;47.876;9.372;2023-08-12T07:30:04;21.70;99.90
8099;DHT22;4092;47.876;9.372;2023-08-12T07:32:31;21.70;99.90
8099;DHT22;4092;47.876;9.372;2023-08-12T07:34:58;21.80;99.90
8099;DHT22;4092;47.876;9.372;2023-08-12T07:37:25;21.90;99.90
8099;DHT22;4092;47.876;9.372;2023-08-12T07:39:54;22.00;99.90
8099;DHT22;4092;47.876;9.372;2023-08-12T07:42:21;21.90;99.90
8099;DHT22;4092;47.876;9.372;2023-08-12T07:44:48;22.00;99.90
8099;DHT22;4092;47.876;9.372;2023-08-12T07:47:15;22.00;99.90
8099;DHT22;4092;47.876;9.372;2023-08-12T07:49:43;21.90;99.90
8099;DHT22;4092;47.876;9.372;2023-08-12T07:52:10;21.90;99.90
8099;DHT22;4092;47.876;9.372;2023-08-12T07:54:37;21.90;99.90
8099;DHT22;4092;47.876;9.372;2023-08-12T07:57:05;21.90;99.90
8099;DHT22;4092;47.876;9.372;2023-08-12T07:59:32;22.00;99.90
8099;DHT22;4092;47.876;9.372;2023-08-12T08:01:59;22.10;99.90
8099;DHT22;4092;47.876;9.372;2023-08-12T08:04:26;22.30;99.90
8099;DHT22;4092;47.876;9.372;2023-08-12T08:06:53;22.40;99.90
8099;DHT22;4092;47.876;9.372;2023-08-12T08:09:20;22.60;99.90
8099;DHT22;4092;47.876;9.372;2023-08-12T08:11:47;22.80;99.90
8099;DHT22;4092;47.876;9.372;2023-08-12T08:14:15;22.90;99.90
8099;DHT22;4092;47.876;9.372;2023-08-12T08:16:43;23.10;99.90
8099;DHT22;4092;47.876;9.372;2023-08-12T08:19:10;23.20;99.90
8099;DHT22;4092;47.876;9.372;2023-08-12T08:21:37;23.40;99.90
8099;DHT22;4092;47.876;9.372;2023-08-12T08:24:04;23.50;99.90
8099;DHT22;4092;47.876;9.372;2023-08-12T08:26:31;23.70;99.90
8099;DHT22;4092;47.876;9.372;2023-08-12T08:28:58;23.90;99.90
8099;DHT22;4092;47.876;9.372;2023-08-12T08:31:27;24.00;99.90
8099;DHT22;4092;47.876;9.372;2023-08-12T08:33:54;24.10;99.90
8099;DHT22;4092;47.876;9.372;2023-08-12T08:36:20;24.10;99.90
8099;DHT22;4092;47.876;9.372;2023-08-12T08:38:48;24.00;99.90
8099;DHT22;4092;47.876;9.372;2023-08-12T08:41:16;24.10;99.90
8099;DHT22;4092;47.876;9.372;2023-08-12T08:43:43;24.30;99.90
8099;DHT22;4092;47.876;9.372;2023-08-12T08:46:14;24.40;99.90
8099;DHT22;4092;47.876;9.372;2023-08-12T08:48:43;24.40;99.90
8099;DHT22;4092;47.876;9.372;2023-08-12T08:51:11;24.50;99.90
8099;DHT22;4092;47.876;9.372;2023-08-12T08:53:38;24.50;99.90
8099;DHT22;4092;47.876;9.372;2023-08-12T08:56:07;24.40;99.90
8099;DHT22;4092;47.876;9.372;2023-08-12T08:58:37;24.30;99.90
8099;DHT22;4092;47.876;9.372;2023-08-12T09:01:05;24.10;99.90
8099;DHT22;4092;47.876;9.372;2023-08-12T09:03:34;23.80;99.90
8099;DHT22;4092;47.876;9.372;2023-08-12T09:06:03;23.80;99.90
8099;DHT22;4092;47.876;9.372;2023-08-12T09:08:32;23.70;99.90
8099;DHT22;4092;47.876;9.372;2023-08-12T09:11:02;23.60;99.90
8099;DHT22;4092;47.876;9.372;2023-08-12T09:13:31;23.60;99.90
8099;DHT22;4092;47.876;9.372;2023-08-12T09:15:58;23.60;99.90
8099;DHT22;4092;47.876;9.372;2023-08-12T09:18:26;23.70;99.90
8099;DHT22;4092;47.876;9.372;2023-08-12T09:20:53;23.80;99.90
8099;DHT22;4092;47.876;9.372;2023-08-12T09:23:22;24.00;99.90
8099;DHT22;4092;47.876;9.372;2023-08-12T09:25:49;24.10;99.90
8099;DHT22;4092;47.876;9.372;2023-08-12T09:28:16;24.20;99.90
8099;DHT22;4092;47.876;9.372;2023-08-12T09:30:50;24.40;99.90
8099;DHT22;4092;47.876;9.372;2023-08-12T09:33:24;24.50;99.90
8099;DHT22;4092;47.876;9.372;2023-08-12T09:35:54;24.60;99.90
8099;DHT22;4092;47.876;9.372;2023-08-12T09:38:24;24.80;99.90
8099;DHT22;4092;47.876;9.372;2023-08-12T09:40:52;25.00;99.90
8099;DHT22;4092;47.876;9.372;2023-08-12T09:43:23;25.20;99.90
8099;DHT22;4092;47.876;9.372;2023-08-12T09:45:50;25.30;99.90
8099;DHT22;4092;47.876;9.372;2023-08-12T09:48:17;25.30;99.90
8099;DHT22;4092;47.876;9.372;2023-08-12T09:50:45;25.30;99.90
8099;DHT22;4092;47.876;9.372;2023-08-12T09:53:12;25.30;99.90
8099;DHT22;4092;47.876;9.372;2023-08-12T09:55:40;25.30;99.90
8099;DHT22;4092;47.876;9.372;2023-08-12T09:58:10;25.30;99.90
8099;DHT22;4092;47.876;9.372;2023-08-12T10:00:41;25.30;99.90
8099;DHT22;4092;47.876;9.372;2023-08-12T10:03:08;25.50;99.90
8099;DHT22;4092;47.876;9.372;2023-08-12T10:05:37;25.50;99.90
8099;DHT22;4092;47.876;9.372;2023-08-12T10:08:05;25.40;99.90
8099;DHT22;4092;47.876;9.372;2023-08-12T10:10:35;25.20;99.90
8099;DHT22;4092;47.876;9.372;2023-08-12T10:13:05;25.00;99.90
8099;DHT22;4092;47.876;9.372;2023-08-12T10:15:33;24.90;99.90
8099;DHT22;4092;47.876;9.372;2023-08-12T10:18:00;24.90;99.90
8099;DHT22;4092;47.876;9.372;2023-08-12T10:20:30;25.20;99.90
8099;DHT22;4092;47.876;9.372;2023-08-12T10:22:59;25.50;99.90
8099;DHT22;4092;47.876;9.372;2023-08-12T10:25:32;25.80;99.90
8099;DHT22;4092;47.876;9.372;2023-08-12T10:28:00;26.00;99.90
8099;DHT22;4092;47.876;9.372;2023-08-12T10:30:30;26.20;99.90
8099;DHT22;4092;47.876;9.372;2023-08-12T10:32:58;26.50;99.90
8099;DHT22;4092;47.876;9.372;2023-08-12T10:35:41;26.60;99.90
8099;DHT22;4092;47.876;9.372;2023-08-12T10:38:13;26.70;99.90
8099;DHT22;4092;47.876;9.372;2023-08-12T10:40:41;26.70;99.90
8099;DHT22;4092;47.876;9.372;2023-08-12T10:43:08;26.90;99.90
8099;DHT22;4092;47.876;9.372;2023-08-12T10:45:46;26.90;99.90
8099;DHT22;4092;47.876;9.372;2023-08-12T10:48:18;26.70;99.90
8099;DHT22;4092;47.876;9.372;2023-08-12T10:50:48;26.70;99.90
8099;DHT22;4092;47.876;9.372;2023-08-12T10:53:24;26.70;99.90
8099;DHT22;4092;47.876;9.372;2023-08-12T10:55:56;26.70;99.90
8099;DHT22;4092;47.876;9.372;2023-08-12T10:58:28;26.70;99.90
8099;DHT22;4092;47.876;9.372;2023-08-12T11:00:57;26.50;99.90
8099;DHT22;4092;47.876;9.372;2023-08-12T11:03:24;26.20;99.90
8099;DHT22;4092;47.876;9.372;2023-08-12T11:05:53;25.90;99.90
8099;DHT22;4092;47.876;9.372;2023-08-12T11:08:26;25.40;99.90
8099;DHT22;4092;47.876;9.372;2023-08-12T11:10:55;25.00;99.90
8099;DHT22;4092;47.876;9.372;2023-08-12T11:13:27;24.70;99.90
8099;DHT22;4092;47.876;9.372;2023-08-12T11:16:07;24.50;99.90
8099;DHT22;4092;47.876;9.372;2023-08-12T11:18:35;24.40;99.90
8099;DHT22;4092;47.876;9.372;2023-08-12T11:21:03;24.20;99.90
8099;DHT22;4092;47.876;9.372;2023-08-12T11:23:33;24.10;99.90
8099;DHT22;4092;47.876;9.372;2023-08-12T11:26:01;23.90;99.90
8099;DHT22;4092;47.876;9.372;2023-08-12T11:28:30;23.90;99.90
8099;DHT22;4092;47.876;9.372;2023-08-12T11:30:58;23.80;99.90
8099;DHT22;4092;47.876;9.372;2023-08-12T11:33:27;23.80;99.90
8099;DHT22;4092;47.876;9.372;2023-08-12T11:35:55;23.70;99.90
8099;DHT22;4092;47.876;9.372;2023-08-12T11:38:22;23.70;99.90
8099;DHT22;4092;47.876;9.372;2023-08-12T11:40:50;23.60;99.90
8099;DHT22;4092;47.876;9.372;2023-08-12T11:43:21;23.70;99.90
8099;DHT22;4092;47.876;9.372;2023-08-12T11:45:48;23.60;99.90
8099;DHT22;4092;47.876;9.372;2023-08-12T11:48:15;23.70;99.90
8099;DHT22;4092;47.876;9.372;2023-08-12T11:50:43;23.70;99.90
8099;DHT22;4092;47.876;9.372;2023-08-12T11:53:12;23.70;99.90
8099;DHT22;4092;47.876;9.372;2023-08-12T11:55:41;23.70;99.90
8099;DHT22;4092;47.876;9.372;2023-08-12T11:58:09;23.80;99.90
8099;DHT22;4092;47.876;9.372;2023-08-12T12:00:38;23.80;99.90
8099;DHT22;4092;47.876;9.372;2023-08-12T12:03:06;23.90;99.90
8099;DHT22;4092;47.876;9.372;2023-08-12T12:05:33;24.00;99.90
8099;DHT22;4092;47.876;9.372;2023-08-12T12:08:02;24.10;99.90
8099;DHT22;4092;47.876;9.372;2023-08-12T12:10:32;24.20;99.90
8099;DHT22;4092;47.876;9.372;2023-08-12T12:13:02;24.20;99.90
8099;DHT22;4092;47.876;9.372;2023-08-12T12:15:29;24.20;99.90
8099;DHT22;4092;47.876;9.372;2023-08-12T12:17:56;24.20;99.90
8099;DHT22;4092;47.876;9.372;2023-08-12T12:20:23;24.20;99.90
8099;DHT22;4092;47.876;9.372;2023-08-12T12:22:52;24.20;99.90
8099;DHT22;4092;47.876;9.372;2023-08-12T12:25:22;24.20;99.90
8099;DHT22;4092;47.876;9.372;2023-08-12T12:27:49;24.20;99.90
8099;DHT22;4092;47.876;9.372;2023-08-12T12:30:16;24.20;99.90
8099;DHT22;4092;47.876;9.372;2023-08-12T12:32:44;24.20;99.90
8099;DHT22;4092;47.876;9.372;2023-08-12T12:35:11;24.20;99.90
8099;DHT22;4092;47.876;9.372;2023-08-12T12:37:38;24.20;99.90
8099;DHT22;4092;47.876;9.372;2023-08-12T12:40:06;24.20;99.90
8099;DHT22;4092;47.876;9.372;2023-08-12T12:42:35;24.20;99.90
8099;DHT22;4092;47.876;9.372;2023-08-12T12:45:02;24.20;99.90
8099;DHT22;4092;47.876;9.372;2023-08-12T12:47:30;24.30;99.90
8099;DHT22;4092;47.876;9.372;2023-08-12T12:49:57;24.30;99.90
8099;DHT22;4092;47.876;9.372;2023-08-12T12:52:24;24.20;99.90
8099;DHT22;4092;47.876;9.372;2023-08-12T12:54:51;24.20;99.90
8099;DHT22;4092;47.876;9.372;2023-08-12T12:57:18;24.10;99.90
8099;DHT22;4092;47.876;9.372;2023-08-12T12:59:46;23.90;99.90
8099;DHT22;4092;47.876;9.372;2023-08-12T13:02:18;23.80;99.90
8099;DHT22;4092;47.876;9.372;2023-08-12T13:04:45;23.70;99.90
8099;DHT22;4092;47.876;9.372;2023-08-12T13:07:12;23.70;99.90
8099;DHT22;4092;47.876;9.372;2023-08-12T13:09:39;23.60;99.90
8099;DHT22;4092;47.876;9.372;2023-08-12T13:12:06;23.70;99.90
8099;DHT22;4092;47.876;9.372;2023-08-12T13:14:34;23.70;99.90
8099;DHT22;4092;47.876;9.372;2023-08-12T13:17:02;23.80;99.90
8099;DHT22;4092;47.876;9.372;2023-08-12T13:19:29;23.90;99.90
8099;DHT22;4092;47.876;9.372;2023-08-12T13:21:56;24.10;99.90
8099;DHT22;4092;47.876;9.372;2023-08-12T13:24:23;24.40;99.90
8099;DHT22;4092;47.876;9.372;2023-08-12T13:26:50;24.80;99.90
8099;DHT22;4092;47.876;9.372;2023-08-12T13:29:18;25.40;99.90
8099;DHT22;4092;47.876;9.372;2023-08-12T13:31:45;26.00;99.90
8099;DHT22;4092;47.876;9.372;2023-08-12T13:34:13;26.50;99.90
8099;DHT22;4092;47.876;9.372;2023-08-12T13:36:40;26.90;99.90
8099;DHT22;4092;47.876;9.372;2023-08-12T13:39:08;27.20;99.90
8099;DHT22;4092;47.876;9.372;2023-08-12T13:41:35;27.50;99.90
8099;DHT22;4092;47.876;9.372;2023-08-12T13:44:02;27.70;99.90
8099;DHT22;4092;47.876;9.372;2023-08-12T13:46:29;27.80;99.90
8099;DHT22;4092;47.876;9.372;2023-08-12T13:48:56;27.80;99.90
8099;DHT22;4092;47.876;9.372;2023-08-12T13:51:24;28.00;99.90
8099;DHT22;4092;47.876;9.372;2023-08-12T13:53:51;28.30;99.90
8099;DHT22;4092;47.876;9.372;2023-08-12T13:56:19;28.50;99.90
8099;DHT22;4092;47.876;9.372;2023-08-12T13:58:46;28.80;99.90
8099;DHT22;4092;47.876;9.372;2023-08-12T14:01:13;28.80;99.90
8099;DHT22;4092;47.876;9.372;2023-08-12T14:03:40;29.00;99.90
8099;DHT22;4092;47.876;9.372;2023-08-12T14:06:07;29.10;99.90
8099;DHT22;4092;47.876;9.372;2023-08-12T14:08:36;29.30;99.90
8099;DHT22;4092;47.876;9.372;2023-08-12T14:11:03;29.50;99.90
8099;DHT22;4092;47.876;9.372;2023-08-12T14:13:30;29.50;99.90
8099;DHT22;4092;47.876;9.372;2023-08-12T14:15:57;29.70;99.90
8099;DHT22;4092;47.876;9.372;2023-08-12T14:18:24;29.90;99.90
8099;DHT22;4092;47.876;9.372;2023-08-12T14:20:54;29.90;99.90
8099;DHT22;4092;47.876;9.372;2023-08-12T14:23:21;29.40;99.90
8099;DHT22;4092;47.876;9.372;2023-08-12T14:25:50;29.10;99.90
8099;DHT22;4092;47.876;9.372;2023-08-12T14:28:18;28.80;99.90
8099;DHT22;4092;47.876;9.372;2023-08-12T14:30:45;28.40;99.90
8099;DHT22;4092;47.876;9.372;2023-08-12T14:33:11;28.30;99.90
8099;DHT22;4092;47.876;9.372;2023-08-12T14:35:38;28.40;99.90
8099;DHT22;4092;47.876;9.372;2023-08-12T14:38:05;28.60;99.90
8099;DHT22;4092;47.876;9.372;2023-08-12T14:40:32;28.70;99.90
8099;DHT22;4092;47.876;9.372;2023-08-12T14:43:01;28.80;99.90
8099;DHT22;4092;47.876;9.372;2023-08-12T14:45:28;29.10;99.90
8099;DHT22;4092;47.876;9.372;2023-08-12T14:47:55;29.30;99.90
8099;DHT22;4092;47.876;9.372;2023-08-12T14:50:22;29.30;99.90
8099;DHT22;4092;47.876;9.372;2023-08-12T14:52:49;29.30;99.90
8099;DHT22;4092;47.876;9.372;2023-08-12T14:55:17;29.10;99.90
8099;DHT22;4092;47.876;9.372;2023-08-12T14:57:44;29.00;99.90
8099;DHT22;4092;47.876;9.372;2023-08-12T15:00:14;29.30;99.90
8099;DHT22;4092;47.876;9.372;2023-08-12T15:02:41;29.50;99.90
8099;DHT22;4092;47.876;9.372;2023-08-12T15:05:09;29.30;99.90
8099;DHT22;4092;47.876;9.372;2023-08-12T15:07:37;29.00;99.90
8099;DHT22;4092;47.876;9.372;2023-08-12T15:10:05;29.00;99.90
8099;DHT22;4092;47.876;9.372;2023-08-12T15:12:33;29.10;99.90
8099;DHT22;4092;47.876;9.372;2023-08-12T15:15:00;29.30;99.90
8099;DHT22;4092;47.876;9.372;2023-08-12T15:17:31;29.30;99.90
8099;DHT22;4092;47.876;9.372;2023-08-12T15:19:58;29.50;99.90
8099;DHT22;4092;47.876;9.372;2023-08-12T15:22:25;29.30;99.90
8099;DHT22;4092;47.876;9.372;2023-08-12T15:24:52;29.30;99.90
8099;DHT22;4092;47.876;9.372;2023-08-12T15:27:19;29.30;99.90
8099;DHT22;4092;47.876;9.372;2023-08-12T15:29:46;29.00;99.90
8099;DHT22;4092;47.876;9.372;2023-08-12T15:32:13;28.90;99.90
8099;DHT22;4092;47.876;9.372;2023-08-12T15:34:42;28.40;99.90
8099;DHT22;4092;47.876;9.372;2023-08-12T15:37:09;28.00;99.90
8099;DHT22;4092;47.876;9.372;2023-08-12T15:39:36;27.50;99.90
8099;DHT22;4092;47.876;9.372;2023-08-12T15:42:03;27.10;99.90
8099;DHT22;4092;47.876;9.372;2023-08-12T15:44:30;26.80;99.90
8099;DHT22;4092;47.876;9.372;2023-08-12T15:46:57;26.50;99.90
8099;DHT22;4092;47.876;9.372;2023-08-12T15:49:24;26.30;99.90
8099;DHT22;4092;47.876;9.372;2023-08-12T15:51:53;26.00;99.90
8099;DHT22;4092;47.876;9.372;2023-08-12T15:54:20;25.80;99.90
8099;DHT22;4092;47.876;9.372;2023-08-12T15:56:47;25.80;99.90
8099;DHT22;4092;47.876;9.372;2023-08-12T15:59:14;25.70;99.90
8099;DHT22;4092;47.876;9.372;2023-08-12T16:01:42;25.60;99.90
8099;DHT22;4092;47.876;9.372;2023-08-12T16:04:09;25.60;99.90
8099;DHT22;4092;47.876;9.372;2023-08-12T16:06:36;25.50;99.90